Terminal Aerodrome Forecast
Issued by NWS Sterling, VA

Current Version | Previous Version | Graphics & Text | Print | Product List | Glossary On
Versions: 1 2 3 4 5 6 7 8 9 10 11 12 13 14 15 16 17 18 19 20 21 22 23 24 25 26 27
481
FTUS41 KLWX 220550
TAFDCA
TAF
KDCA 220550Z 2206/2306 32008KT P6SM FEW070 SCT170 OVC210
     FM221900 25007KT P6SM BKN050
     FM222300 25006KT P6SM -SHRA VCTS BKN050CB=

USA.gov is the U.S. government's official web portal to all federal, state and local government web resources and services.